createdAt,value
2018-09-04T00:01:52.739Z,95371.97
2018-09-04T00:04:21.888Z,95371.10
2018-09-04T00:09:26.742Z,95364.08
2018-09-04T00:11:55.819Z,95363.73
2018-09-04T00:14:24.905Z,95358.27
2018-09-04T00:16:53.963Z,95365.11
2018-09-04T00:19:23.933Z,95363.49
2018-09-04T00:21:53.018Z,95360.82
2018-09-04T00:26:57.937Z,95360.77
2018-09-04T00:29:26.977Z,95360.77
2018-09-04T00:31:57.017Z,95358.64
2018-09-04T00:34:26.171Z,95360.34
2018-09-04T00:36:55.191Z,95359.00
2018-09-04T00:39:25.229Z,95359.37
2018-09-04T00:41:55.291Z,95365.52
2018-09-04T00:44:24.393Z,95363.81
2018-09-04T00:46:53.470Z,95361.98
2018-09-04T00:49:22.715Z,95362.23
2018-09-04T00:51:51.780Z,95364.45
2018-09-04T00:54:20.846Z,95362.06
2018-09-04T00:59:25.782Z,95364.69
2018-09-04T01:01:56.844Z,95359.41
2018-09-04T01:04:26.882Z,95358.19
2018-09-04T01:06:55.956Z,95351.71
2018-09-04T01:09:25.024Z,95351.24
2018-09-04T01:11:54.115Z,95351.95
2018-09-04T01:14:24.095Z,95354.82
2018-09-04T01:16:53.174Z,95355.53
2018-09-04T01:19:22.234Z,95354.52
2018-09-04T01:21:51.313Z,95355.19
2018-09-04T01:26:56.157Z,95350.80
2018-09-04T01:29:25.232Z,95351.16
2018-09-04T01:31:54.292Z,95353.20
2018-09-04T01:34:23.374Z,95353.78
2018-09-04T01:36:52.439Z,95351.99
2018-09-04T01:39:21.505Z,95354.16
2018-09-04T01:41:50.656Z,95350.14
2018-09-04T01:44:19.730Z,95351.23
2018-09-04T01:46:49.757Z,95348.76
2018-09-04T01:49:18.829Z,95346.09
2018-09-04T01:51:47.894Z,95347.36
2018-09-04T01:54:16.999Z,95348.19
2018-09-04T01:56:46.069Z,95344.95
2018-09-04T01:59:15.211Z,95346.95
2018-09-04T02:04:20.126Z,95344.75
2018-09-04T02:06:50.133Z,95345.31
2018-09-04T02:09:19.195Z,95345.43
2018-09-04T02:14:08.767Z,95343.81
2018-09-04T02:16:37.834Z,95347.05
2018-09-04T02:19:08.883Z,95346.00
2018-09-04T02:21:41.711Z,95346.22
2018-09-04T02:24:13.241Z,95348.84
2018-09-04T02:26:43.237Z,95344.80
2018-09-04T02:29:12.305Z,95345.30
2018-09-04T02:31:41.443Z,95347.27
2018-09-04T02:34:10.907Z,95346.91
2018-09-04T02:36:39.988Z,95343.02
2018-09-04T02:39:09.066Z,95343.69
2018-09-04T02:41:38.139Z,95348.10
2018-09-04T02:44:07.203Z,95345.38
2018-09-04T02:46:36.275Z,95346.89
2018-09-04T02:49:05.340Z,95348.06
2018-09-04T02:51:35.356Z,95344.41
2018-09-04T02:54:04.448Z,95350.59
2018-09-04T02:59:09.221Z,95348.88
2018-09-04T03:01:38.301Z,95346.58
2018-09-04T03:04:07.366Z,95351.14
2018-09-04T03:06:36.448Z,95351.67
2018-09-04T03:09:05.536Z,95354.51
2018-09-04T03:16:46.227Z,95357.45
2018-09-04T03:19:15.304Z,95352.36
2018-09-04T03:21:44.381Z,95350.31
2018-09-04T03:24:13.445Z,95350.98
2018-09-04T03:26:42.061Z,95344.58
2018-09-04T03:29:10.604Z,95339.34
2018-09-04T03:31:40.113Z,95336.13
2018-09-04T03:34:08.662Z,95334.54
2018-09-04T03:36:40.917Z,95332.12
2018-09-04T03:39:09.473Z,95341.66
2018-09-04T03:41:38.943Z,95344.23
2018-09-04T03:44:07.501Z,95346.39
2018-09-04T03:46:39.954Z,95346.33
2018-09-04T03:49:08.456Z,95346.95
2018-09-04T03:51:37.008Z,95345.47
2018-09-04T03:54:05.529Z,95346.92
2018-09-04T03:56:34.066Z,95338.76
2018-09-04T03:59:02.603Z,95347.10
2018-09-04T04:01:31.165Z,95344.60
2018-09-04T04:03:59.693Z,95349.83
2018-09-04T04:06:32.654Z,95348.35
2018-09-04T04:09:01.198Z,95348.81
2018-09-04T04:11:29.736Z,95351.02
2018-09-04T04:14:00.228Z,95351.80
2018-09-04T04:16:28.747Z,95355.88
2018-09-04T04:18:57.289Z,95356.69
2018-09-04T04:21:25.874Z,95360.33
2018-09-04T04:23:55.488Z,95362.98
2018-09-04T04:26:23.948Z,95364.80
2018-09-04T04:28:54.413Z,95365.77
2018-09-04T04:31:22.951Z,95370.55
2018-09-04T04:33:51.564Z,95370.66
2018-09-04T04:36:20.099Z,95368.97
2018-09-04T04:38:48.668Z,95373.73
2018-09-04T04:41:17.180Z,95377.63
2018-09-04T04:43:46.658Z,95379.14
2018-09-04T04:46:15.220Z,95382.90
2018-09-04T04:48:46.791Z,95379.92
2018-09-04T04:51:15.361Z,95380.57
2018-09-04T04:53:44.892Z,95383.68
2018-09-04T04:56:14.396Z,95383.41
2018-09-04T04:58:42.926Z,95381.89
2018-09-04T05:01:11.514Z,95377.78
2018-09-04T05:03:40.036Z,95382.84
2018-09-04T05:06:08.580Z,95371.95
2018-09-04T05:08:37.136Z,95375.66
2018-09-04T05:11:05.767Z,95375.81
2018-09-04T05:13:34.213Z,95376.22
2018-09-04T05:16:02.743Z,95376.66
2018-09-04T05:18:32.204Z,95380.20
2018-09-04T05:21:00.754Z,95387.20
2018-09-04T05:23:29.280Z,95383.39
2018-09-04T05:25:58.004Z,95390.95
2018-09-04T05:28:34.528Z,95391.03
2018-09-04T05:31:06.296Z,95389.25
2018-09-04T05:33:34.836Z,95388.66
2018-09-04T05:36:04.825Z,95387.45
2018-09-04T05:38:33.450Z,95386.95
2018-09-04T05:41:02.080Z,95383.70
2018-09-04T05:43:30.628Z,95390.67
2018-09-04T05:45:59.165Z,95389.16
2018-09-04T05:48:27.723Z,95385.69
2018-09-04T05:50:58.585Z,95390.69
2018-09-04T05:53:27.131Z,95399.13
2018-09-04T05:55:55.693Z,95393.19
2018-09-04T05:58:24.221Z,95396.38
2018-09-04T06:00:52.768Z,95395.16
2018-09-04T06:03:21.328Z,95393.31
2018-09-04T06:05:49.869Z,95391.77
2018-09-04T06:08:18.504Z,95391.16
2018-09-04T06:10:47.063Z,95389.77
2018-09-04T06:13:15.601Z,95389.02
2018-09-04T06:15:44.134Z,95393.72
2018-09-04T06:18:12.679Z,95391.28
2018-09-04T06:20:41.208Z,95396.17
2018-09-04T06:23:09.744Z,95395.16
2018-09-04T06:25:38.269Z,95393.91
2018-09-04T06:28:07.841Z,95397.09
2018-09-04T06:30:36.438Z,95397.43
2018-09-04T06:33:05.036Z,95401.14
2018-09-04T06:35:33.694Z,95404.39
2018-09-04T06:38:02.332Z,95401.77
2018-09-04T06:40:32.830Z,95403.94
2018-09-04T06:43:01.353Z,95402.88
2018-09-04T06:45:29.887Z,95407.30
2018-09-04T06:47:58.520Z,95408.28
2018-09-04T06:50:27.164Z,95406.66
2018-09-04T06:52:55.728Z,95407.88
2018-09-04T06:55:24.264Z,95408.90
2018-09-04T06:57:52.840Z,95412.75
2018-09-04T07:00:32.094Z,95417.41
2018-09-04T07:03:01.784Z,95425.05
2018-09-04T07:05:30.315Z,95425.64
2018-09-04T07:07:58.864Z,95427.66
2018-09-04T07:10:27.426Z,95425.44
2018-09-04T07:12:56.435Z,95426.10
2018-09-04T07:15:24.981Z,95429.75
2018-09-04T07:17:53.527Z,95432.62
2018-09-04T07:20:22.285Z,95432.61
2018-09-04T07:22:50.817Z,95430.20
2018-09-04T07:25:19.353Z,95427.69
2018-09-04T07:27:48.196Z,95424.84
2018-09-04T07:30:20.017Z,95424.33
2018-09-04T07:32:48.543Z,95427.86
2018-09-04T07:35:19.641Z,95427.57
2018-09-04T07:37:51.751Z,95431.17
2018-09-04T07:40:20.273Z,95432.12
2018-09-04T07:42:48.803Z,95434.08
2018-09-04T07:45:17.337Z,95439.45
2018-09-04T07:47:45.882Z,95432.58
2018-09-04T07:50:14.395Z,95434.72
2018-09-04T07:52:46.626Z,95428.97
2018-09-04T07:55:15.204Z,95430.98
2018-09-04T07:57:43.748Z,95430.67
2018-09-04T08:00:14.277Z,95435.55
2018-09-04T08:02:42.824Z,95430.78
2018-09-04T08:05:11.436Z,95434.55
2018-09-04T08:07:40.178Z,95436.20
2018-09-04T08:10:08.773Z,95431.16
2018-09-04T08:12:37.242Z,95436.85
2018-09-04T08:15:05.934Z,95435.64
2018-09-04T08:17:34.548Z,95437.59
2018-09-04T08:20:03.110Z,95435.55
2018-09-04T08:22:44.277Z,95437.74
2018-09-04T08:25:14.922Z,95438.83
2018-09-04T08:27:46.716Z,95438.31
2018-09-04T08:30:15.252Z,95442.83
2018-09-04T08:32:43.830Z,95441.77
2018-09-04T08:35:12.328Z,95436.88
2018-09-04T08:37:43.041Z,95437.52
2018-09-04T08:40:11.625Z,95437.95
2018-09-04T08:42:40.170Z,95433.91
2018-09-04T08:45:10.924Z,95436.92
2018-09-04T08:47:39.460Z,95434.34
2018-09-04T08:50:08.011Z,95435.00
2018-09-04T08:52:36.546Z,95430.00
2018-09-04T08:55:09.393Z,95428.87
2018-09-04T08:57:38.055Z,95427.97
2018-09-04T09:00:09.640Z,95427.63
2018-09-04T09:02:39.133Z,95431.98
2018-09-04T09:05:07.659Z,95435.20
2018-09-04T09:07:36.215Z,95432.64
2018-09-04T09:10:04.760Z,95432.02
2018-09-04T09:12:34.215Z,95435.01
2018-09-04T09:15:02.743Z,95436.31
2018-09-04T09:17:32.317Z,95435.61
2018-09-04T09:20:00.856Z,95432.22
2018-09-04T09:22:30.480Z,95432.25
2018-09-04T09:25:09.725Z,95434.16
2018-09-04T09:27:39.249Z,95431.06
2018-09-04T09:30:11.104Z,95432.52
2018-09-04T09:32:40.613Z,95435.52
2018-09-04T09:35:09.208Z,95431.25
2018-09-04T09:37:41.504Z,95432.22
2018-09-04T09:40:10.071Z,95430.36
2018-09-04T09:42:38.611Z,95429.33
2018-09-04T09:45:09.132Z,95429.72
2018-09-04T09:47:37.680Z,95432.56
2018-09-04T09:50:06.217Z,95429.56
2018-09-04T09:52:35.038Z,95430.69
2018-09-04T09:55:06.697Z,95436.73
2018-09-04T09:57:35.257Z,95434.64
2018-09-04T10:00:04.873Z,95434.61
2018-09-04T10:02:33.351Z,95435.63
2018-09-04T10:05:12.288Z,95441.41
2018-09-04T10:07:44.337Z,95449.36
2018-09-04T10:10:14.794Z,95443.67
2018-09-04T10:12:43.328Z,95442.84
2018-09-04T10:15:14.991Z,95446.81
2018-09-04T10:17:48.815Z,95446.84
2018-09-04T10:20:18.356Z,95441.23
2018-09-04T10:22:46.897Z,95445.22
2018-09-04T10:25:15.444Z,95444.95
2018-09-04T10:27:51.637Z,95447.25
2018-09-04T10:30:27.162Z,95444.18
2018-09-04T10:32:55.694Z,95441.77
2018-09-04T10:35:29.766Z,95437.61
2018-09-04T10:37:58.304Z,95441.49
2018-09-04T10:40:36.299Z,95441.80
2018-09-04T10:43:09.229Z,95445.09
2018-09-04T10:45:37.756Z,95444.30
2018-09-04T10:48:08.245Z,95449.80
2018-09-04T10:50:44.592Z,95447.25
2018-09-04T10:53:15.042Z,95447.31
2018-09-04T10:55:43.708Z,95450.08
2018-09-04T10:58:13.130Z,95454.34
2018-09-04T11:00:41.704Z,95452.63
2018-09-04T11:03:10.235Z,95450.48
2018-09-04T11:05:40.809Z,95454.15
2018-09-04T11:08:20.105Z,95454.38
2018-09-04T11:10:48.659Z,95450.67
2018-09-04T11:13:17.207Z,95452.04
2018-09-04T11:15:45.737Z,95454.36
2018-09-04T11:18:14.297Z,95454.64
2018-09-04T11:20:42.893Z,95453.30
2018-09-04T11:23:11.420Z,95454.22
2018-09-04T11:25:39.942Z,95451.45
2018-09-04T11:28:09.468Z,95455.29
2018-09-04T11:30:38.033Z,95452.16
2018-09-04T11:33:06.548Z,95448.85
2018-09-04T11:35:35.085Z,95452.84
2018-09-04T11:38:03.627Z,95450.59
2018-09-04T11:40:36.458Z,95453.56
2018-09-04T11:43:04.971Z,95453.89
2018-09-04T11:45:33.580Z,95456.18
2018-09-04T11:48:02.102Z,95454.99
2018-09-04T11:50:30.652Z,95456.69
2018-09-04T11:52:59.189Z,95454.62
2018-09-04T11:55:27.736Z,95459.19
2018-09-04T11:57:56.298Z,95457.09
2018-09-04T12:00:24.829Z,95467.08
2018-09-04T12:02:53.386Z,95466.45
2018-09-04T12:05:21.918Z,95466.48
2018-09-04T12:07:50.454Z,95465.84
2018-09-04T12:10:19.297Z,95466.53
2018-09-04T12:12:48.914Z,95465.23
2018-09-04T12:15:17.369Z,95468.52
2018-09-04T12:17:45.904Z,95470.29
2018-09-04T12:20:15.390Z,95464.89
2018-09-04T12:22:44.299Z,95468.82
2018-09-04T12:25:12.999Z,95469.14
2018-09-04T12:27:41.553Z,95471.53
2018-09-04T12:30:10.152Z,95462.98
2018-09-04T12:32:38.684Z,95464.31
2018-09-04T12:35:09.170Z,95460.41
2018-09-04T12:37:38.663Z,95462.28
2018-09-04T12:40:07.311Z,95459.97
2018-09-04T12:42:35.920Z,95465.57
2018-09-04T12:45:04.380Z,95461.53
2018-09-04T12:47:32.923Z,95462.34
2018-09-04T12:50:01.453Z,95462.36
2018-09-04T12:52:31.941Z,95467.37
2018-09-04T12:55:00.481Z,95467.84
2018-09-04T12:57:30.457Z,95465.76
2018-09-04T12:59:58.974Z,95471.52
2018-09-04T13:02:27.515Z,95472.12
2018-09-04T13:04:56.072Z,95468.82
2018-09-04T13:07:26.520Z,95473.63
2018-09-04T13:09:55.066Z,95473.68
2018-09-04T13:12:23.611Z,95472.08
2018-09-04T13:14:52.136Z,95466.02
2018-09-04T13:17:21.605Z,95470.11
2018-09-04T13:19:50.130Z,95470.62
2018-09-04T13:22:18.746Z,95475.18
2018-09-04T13:24:47.349Z,95477.88
2018-09-04T13:27:15.918Z,95473.70
2018-09-04T13:29:44.451Z,95468.28
2018-09-04T13:32:12.975Z,95471.34
2018-09-04T13:34:41.512Z,95471.24
2018-09-04T13:37:10.056Z,95472.58
2018-09-04T13:39:39.555Z,95474.57
2018-09-04T13:42:11.628Z,95474.84
2018-09-04T13:44:43.329Z,95470.05
2018-09-04T13:47:11.884Z,95471.75
2018-09-04T13:49:40.531Z,95470.38
2018-09-04T13:52:08.958Z,95473.87
2018-09-04T13:54:42.401Z,95475.27
2018-09-04T13:57:13.083Z,95480.58
2018-09-04T13:59:42.641Z,95478.86
2018-09-04T14:02:11.209Z,95479.12
2018-09-04T14:04:39.789Z,95473.47
2018-09-04T14:07:09.314Z,95470.27
2018-09-04T14:09:38.202Z,95470.98
2018-09-04T14:12:06.721Z,95469.14
2018-09-04T14:14:35.456Z,95471.59
2018-09-04T14:17:04.042Z,95469.84
2018-09-04T14:19:32.514Z,95469.39
2018-09-04T14:22:01.093Z,95463.73
2018-09-04T14:24:29.630Z,95462.31
2018-09-04T14:26:58.144Z,95463.19
2018-09-04T14:31:55.213Z,95463.23
2018-09-04T14:34:23.753Z,95460.92
2018-09-04T14:36:53.373Z,95463.58
2018-09-04T14:39:25.518Z,95461.84
2018-09-04T14:41:54.113Z,95455.52
2018-09-04T14:44:23.380Z,95456.01
2018-09-04T14:46:51.893Z,95452.67
2018-09-04T14:49:20.419Z,95457.55
2018-09-04T14:51:49.517Z,95452.30
2018-09-04T14:54:18.037Z,95443.92
2018-09-04T14:56:48.611Z,95446.56
2018-09-04T14:59:17.103Z,95449.81
2018-09-04T15:01:45.627Z,95450.86
2018-09-04T15:04:15.149Z,95453.32
2018-09-04T15:06:43.665Z,95455.22
2018-09-04T15:09:12.190Z,95454.25
2018-09-04T15:11:40.717Z,95452.41
2018-09-04T15:14:09.234Z,95451.64
2018-09-04T15:16:37.785Z,95454.72
2018-09-04T15:19:06.324Z,95458.09
2018-09-04T15:21:36.812Z,95455.27
2018-09-04T15:24:05.333Z,95459.21
2018-09-04T15:26:34.914Z,95453.16
2018-09-04T15:29:03.475Z,95452.88
2018-09-04T15:31:32.051Z,95453.29
2018-09-04T15:34:00.559Z,95454.51
2018-09-04T15:36:29.076Z,95457.95
2018-09-04T15:38:57.620Z,95452.73
2018-09-04T15:41:26.147Z,95465.31
2018-09-04T15:43:54.729Z,95458.41
2018-09-04T15:46:23.266Z,95461.13
2018-09-04T15:48:51.873Z,95458.41
2018-09-04T15:51:21.392Z,95462.92
2018-09-04T15:53:49.946Z,95461.61
2018-09-04T15:56:18.460Z,95464.06
2018-09-04T15:58:46.983Z,95464.40
2018-09-04T16:01:15.573Z,95457.30
2018-09-04T16:03:44.111Z,95456.25
2018-09-04T16:06:12.685Z,95456.72
2018-09-04T16:08:41.215Z,95465.84
2018-09-04T16:11:09.732Z,95459.54
2018-09-04T16:13:39.193Z,95458.67
2018-09-04T16:16:07.712Z,95467.68
2018-09-04T16:18:36.242Z,95465.23
2018-09-04T16:21:04.776Z,95467.13
2018-09-04T16:23:33.310Z,95469.62
2018-09-04T16:26:01.832Z,95468.66
2018-09-04T16:28:30.355Z,95473.67
2018-09-04T16:30:58.898Z,95471.39
2018-09-04T16:33:28.436Z,95469.73
2018-09-04T16:35:56.971Z,95468.28
2018-09-04T16:38:25.704Z,95466.52
2018-09-04T16:40:54.195Z,95466.33
2018-09-04T16:43:22.715Z,95464.77
2018-09-04T16:45:51.362Z,95469.86
2018-09-04T16:48:19.897Z,95469.80
2018-09-04T16:50:48.426Z,95473.13
2018-09-04T16:53:17.145Z,95476.41
2018-09-04T16:55:45.680Z,95473.84
2018-09-04T16:58:14.213Z,95470.73
2018-09-04T17:00:42.750Z,95472.56
2018-09-04T17:03:11.287Z,95476.23
2018-09-04T17:05:39.862Z,95482.59
2018-09-04T17:08:09.365Z,95485.94
2018-09-04T17:10:38.919Z,95486.07
2018-09-04T17:13:09.400Z,95488.61
2018-09-04T17:15:37.946Z,95493.03
2018-09-04T17:18:06.498Z,95489.41
2018-09-04T17:20:35.040Z,95493.90
2018-09-04T17:23:03.585Z,95492.51
2018-09-04T17:25:32.133Z,95496.84
2018-09-04T17:28:00.692Z,95496.37
2018-09-04T17:30:30.251Z,95501.97
2018-09-04T17:32:58.781Z,95502.63
2018-09-04T17:35:28.236Z,95504.09
2018-09-04T17:37:56.856Z,95509.29
2018-09-04T17:40:25.386Z,95508.19
2018-09-04T17:42:53.928Z,95506.53
2018-09-04T17:45:23.488Z,95507.20
2018-09-04T17:47:53.982Z,95513.39
2018-09-04T17:50:22.494Z,95517.63
2018-09-04T17:52:51.054Z,95520.90
2018-09-04T17:55:19.577Z,95524.03
2018-09-04T17:57:48.121Z,95518.99
2018-09-04T18:00:16.720Z,95521.72
2018-09-04T18:02:45.269Z,95522.66
2018-09-04T18:05:13.873Z,95522.38
2018-09-04T18:07:42.416Z,95526.99
2018-09-04T18:10:10.956Z,95530.84
2018-09-04T18:12:39.492Z,95532.38
2018-09-04T18:15:08.025Z,95527.86
2018-09-04T18:17:36.579Z,95530.27
2018-09-04T18:20:05.116Z,95535.32
2018-09-04T18:22:33.650Z,95532.45
2018-09-04T18:25:02.196Z,95538.44
2018-09-04T18:27:31.688Z,95535.22
2018-09-04T18:30:00.244Z,95538.55
2018-09-04T18:32:28.846Z,95543.06
2018-09-04T18:34:57.419Z,95546.78
2018-09-04T18:37:25.993Z,95552.38
2018-09-04T18:39:54.532Z,95554.12
2018-09-04T18:42:23.078Z,95550.66
2018-09-04T18:44:51.604Z,95553.62
2018-09-04T18:47:20.153Z,95553.36
2018-09-04T18:49:48.735Z,95557.59
2018-09-04T18:52:17.240Z,95557.91
2018-09-04T18:54:45.804Z,95559.77
2018-09-04T18:57:14.344Z,95562.92
2018-09-04T18:59:42.894Z,95565.55
2018-09-04T19:02:12.444Z,95570.52
2018-09-04T19:04:40.984Z,95570.55
2018-09-04T19:07:09.523Z,95563.18
2018-09-04T19:09:38.277Z,95566.95
2018-09-04T19:12:07.067Z,95572.26
2018-09-04T19:14:35.678Z,95573.80
2018-09-04T19:17:04.220Z,95572.23
2018-09-04T19:19:32.764Z,95572.11
2018-09-04T19:22:01.309Z,95568.13
2018-09-04T19:24:29.866Z,95567.75
2018-09-04T19:26:58.395Z,95569.97
2018-09-04T19:29:26.920Z,95568.91
2018-09-04T19:31:56.406Z,95571.31
2018-09-04T19:34:24.933Z,95571.23
2018-09-04T19:36:53.473Z,95572.91
2018-09-04T19:39:22.049Z,95573.91
2018-09-04T19:41:50.565Z,95570.30
2018-09-04T19:44:19.112Z,95575.38
2018-09-04T19:46:47.656Z,95577.47
2018-09-04T19:49:16.196Z,95580.80
2018-09-04T19:51:44.732Z,95585.02
2018-09-04T19:54:14.350Z,95586.21
2018-09-04T19:56:44.101Z,95586.25
2018-09-04T19:59:12.674Z,95586.96
2018-09-04T20:01:41.199Z,95588.39
2018-09-04T20:04:13.257Z,95592.05
2018-09-04T20:06:41.805Z,95593.43
2018-09-04T20:09:10.360Z,95597.13
2018-09-04T20:11:40.001Z,95592.23
2018-09-04T20:14:08.630Z,95594.78
2018-09-04T20:16:37.161Z,95597.67
2018-09-04T20:19:05.788Z,95603.31
2018-09-04T20:21:34.899Z,95600.12
2018-09-04T20:24:03.756Z,95599.52
2018-09-04T20:26:32.333Z,95600.28
2018-09-04T20:29:01.382Z,95600.92
2018-09-04T20:31:31.266Z,95596.92
2018-09-04T20:33:59.900Z,95600.30
2018-09-04T20:36:28.524Z,95602.52
2018-09-04T20:38:57.390Z,95595.44
2018-09-04T20:41:25.982Z,95591.45
2018-09-04T20:43:54.620Z,95597.80
2018-09-04T20:46:23.181Z,95602.45
2018-09-04T20:48:51.753Z,95606.59
2018-09-04T20:51:20.306Z,95605.39
2018-09-04T20:53:48.843Z,95601.45
2018-09-04T20:56:17.398Z,95608.81
2018-09-04T20:58:57.643Z,95611.80
2018-09-04T21:01:38.340Z,95611.61
2018-09-04T21:04:18.903Z,95610.70
2018-09-04T21:06:46.979Z,95607.72
2018-09-04T21:09:15.512Z,95608.74
2018-09-04T21:11:45.022Z,95603.95
2018-09-04T21:14:14.411Z,95602.56
2018-09-04T21:16:43.610Z,95609.46
2018-09-04T21:19:12.159Z,95610.20
2018-09-04T21:21:41.643Z,95616.71
2018-09-04T21:24:11.158Z,95620.27
2018-09-04T21:26:39.719Z,95621.46
2018-09-04T21:29:08.266Z,95621.41
2018-09-04T21:31:36.825Z,95622.62
2018-09-04T21:34:05.354Z,95622.25
2018-09-04T21:36:33.960Z,95624.85
2018-09-04T21:39:02.551Z,95616.34
2018-09-04T21:41:31.087Z,95616.09
2018-09-04T21:43:59.678Z,95613.07
2018-09-04T21:46:29.133Z,95613.73
2018-09-04T21:48:57.673Z,95618.87
2018-09-04T21:51:26.227Z,95611.47
2018-09-04T21:53:54.803Z,95603.72
2018-09-04T21:56:23.380Z,95604.69
2018-09-04T21:58:51.904Z,95598.59
2018-09-04T22:01:21.444Z,95601.64
2018-09-04T22:03:50.057Z,95602.27
2018-09-04T22:06:18.596Z,95604.14
2018-09-04T22:08:47.157Z,95608.20
2018-09-04T22:11:15.672Z,95609.36
2018-09-04T22:13:44.227Z,95608.80
2018-09-04T22:16:13.779Z,95603.16
2018-09-04T22:18:42.314Z,95604.56
2018-09-04T22:21:10.984Z,95609.23
2018-09-04T22:23:39.505Z,95613.08
2018-09-04T22:26:08.886Z,95614.40
2018-09-04T22:28:37.407Z,95615.03
2018-09-04T22:31:05.984Z,95616.05
2018-09-04T22:33:34.505Z,95620.28
2018-09-04T22:36:03.089Z,95623.92
2018-09-04T22:38:31.621Z,95619.66
2018-09-04T22:41:00.202Z,95623.44
2018-09-04T22:43:28.739Z,95623.00
2018-09-04T22:45:57.284Z,95625.45
2018-09-04T22:48:26.711Z,95624.32
2018-09-04T22:53:50.545Z,95629.14
2018-09-04T22:56:19.065Z,95632.80
2018-09-04T22:58:47.607Z,95635.11
2018-09-04T23:01:16.148Z,95629.69
2018-09-04T23:03:44.685Z,95629.89
2018-09-04T23:06:13.436Z,95631.22
2018-09-04T23:08:41.988Z,95627.91
2018-09-04T23:11:10.524Z,95621.71
2018-09-04T23:13:39.060Z,95617.81
2018-09-04T23:16:07.600Z,95616.78
2018-09-04T23:18:36.135Z,95616.34
2018-09-04T23:21:05.708Z,95614.90
2018-09-04T23:23:34.248Z,95620.13
2018-09-04T23:26:02.786Z,95609.19
2018-09-04T23:28:31.303Z,95609.67
2018-09-04T23:30:59.864Z,95600.55
2018-09-04T23:33:28.483Z,95600.27
2018-09-04T23:35:57.016Z,95603.22
2018-09-04T23:38:25.580Z,95603.05
2018-09-04T23:40:54.097Z,95602.67
2018-09-04T23:43:22.639Z,95599.40
2018-09-04T23:45:51.166Z,95597.67
2018-09-04T23:48:19.700Z,95601.11
2018-09-04T23:50:49.259Z,95598.10
2018-09-04T23:53:17.836Z,95591.07
2018-09-04T23:55:46.410Z,95591.72
2018-09-04T23:58:14.948Z,95589.44
